Time;durP1;ratioP1;P1;durP2;ratioP2;P2;SDS_P1;SDS_P2;PMS_P1;PMS_P2;Temp;Humidity;BMP_temperature;BMP_pressure;BME280_temperature;BME280_humidity;BME280_pressure;Samples;Min_cycle;Max_cycle;Signal;HPM_P1;HPM_P2
2022/01/15 00:00:27;;;;;;;48.40;29.40;;;0.70;99.90;;;;;;4953297;28;20252;-71
2022/01/15 00:02:56;;;;;;;40.10;26.50;;;0.80;99.90;;;;;;4959550;28;20680;-72
2022/01/15 00:05:25;;;;;;;48.05;30.38;;;0.80;99.90;;;;;;4958383;28;20218;-74
2022/01/15 00:07:53;;;;;;;49.83;28.08;;;0.70;99.90;;;;;;4956382;28;20237;-73
2022/01/15 00:10:26;;;;;;;45.80;28.58;;;0.70;99.90;;;;;;4953146;28;20241;-73
2022/01/15 00:12:53;;;;;;;53.78;30.77;;;0.80;99.90;;;;;;4953188;28;20282;-73
2022/01/15 00:15:26;;;;;;;45.67;29.40;;;0.70;99.90;;;;;;4957053;28;20230;-73
2022/01/15 00:17:59;;;;;;;45.20;28.05;;;0.80;99.90;;;;;;4954656;28;20254;-73
2022/01/15 00:20:29;;;;;;;40.28;26.50;;;0.80;99.90;;;;;;4959997;28;20346;-74
2022/01/15 00:22:59;;;;;;;43.40;29.20;;;0.90;99.90;;;;;;4951838;28;20927;-76
2022/01/15 00:25:30;;;;;;;40.60;28.08;;;0.90;99.90;;;;;;4951005;28;20658;-75
2022/01/15 00:27:59;;;;;;;49.67;28.90;;;0.90;99.90;;;;;;4954840;28;20195;-74
2022/01/15 00:30:27;;;;;;;43.95;26.65;;;0.90;99.90;;;;;;4954066;28;20223;-72
2022/01/15 00:32:55;;;;;;;32.08;22.48;;;0.90;99.90;;;;;;4951653;28;20924;-72
2022/01/15 00:35:26;;;;;;;40.05;25.63;;;0.80;99.90;;;;;;4949298;28;20223;-72
2022/01/15 00:37:55;;;;;;;42.28;26.33;;;0.80;99.90;;;;;;4955181;28;20215;-72
2022/01/15 00:40:23;;;;;;;41.00;24.05;;;0.80;99.90;;;;;;4956310;28;20326;-72
2022/01/15 00:42:51;;;;;;;39.70;25.58;;;0.80;99.90;;;;;;4957688;28;20307;-71
2022/01/15 00:45:22;;;;;;;39.00;24.85;;;0.80;99.90;;;;;;4957850;28;20234;-70
2022/01/15 00:47:50;;;;;;;36.53;24.58;;;0.80;99.90;;;;;;4957662;28;20199;-69
2022/01/15 00:50:19;;;;;;;41.72;25.25;;;0.80;99.90;;;;;;4950875;28;20230;-69
2022/01/15 00:52:47;;;;;;;41.22;24.80;;;0.80;99.90;;;;;;4958175;28;20684;-70
2022/01/15 00:55:19;;;;;;;42.20;24.50;;;0.80;99.90;;;;;;4954843;28;20262;-70
2022/01/15 00:57:47;;;;;;;38.13;24.23;;;0.80;99.90;;;;;;4958296;28;20246;-70
2022/01/15 01:00:18;;;;;;;33.42;23.67;;;0.80;99.90;;;;;;4959786;28;20654;-70
2022/01/15 01:02:47;;;;;;;39.22;23.83;;;0.80;99.90;;;;;;4955342;28;20712;-70
2022/01/15 01:05:16;;;;;;;35.15;24.33;;;0.90;99.90;;;;;;4957788;28;20257;-70
2022/01/15 01:07:44;;;;;;;36.72;25.73;;;1.20;99.90;;;;;;4961465;28;20227;-68
2022/01/15 01:10:32;;;;;;;31.95;21.80;;;1.00;99.90;;;;;;4955660;28;20230;-70
2022/01/15 01:22:24;;;;;;;32.17;23.02;;;0.90;99.90;;;;;;4956660;28;20249;-70
2022/01/15 01:24:38;;;;;;;35.83;22.35;;;0.90;99.90;;;;;;4956791;28;20634;-70
2022/01/15 01:27:12;;;;;;;34.25;24.23;;;0.90;99.90;;;;;;4956736;28;20230;-71
2022/01/15 01:29:54;;;;;;;42.50;25.52;;;1.00;99.90;;;;;;4956707;28;20207;-70
2022/01/15 01:32:43;;;;;;;40.40;24.88;;;1.00;99.90;;;;;;4959475;28;20217;-71
2022/01/15 01:35:18;;;;;;;46.15;26.55;;;1.10;99.90;;;;;;4967549;28;20286;-70
2022/01/15 01:37:51;;;;;;;56.38;28.42;;;1.00;99.90;;;;;;4949507;28;20257;-71
2022/01/15 01:40:23;;;;;;;48.92;27.25;;;1.10;99.90;;;;;;4956507;28;20338;-71
2022/01/15 01:42:58;;;;;;;55.05;29.92;;;1.10;99.90;;;;;;4956509;28;20619;-71
2022/01/15 01:45:28;;;;;;;54.00;31.65;;;1.00;99.90;;;;;;4956704;28;20704;-71
2022/01/15 01:47:56;;;;;;;49.25;27.63;;;1.00;99.90;;;;;;4956340;28;20590;-71
2022/01/15 01:50:26;;;;;;;73.22;31.25;;;1.00;99.90;;;;;;4956419;28;20203;-71
2022/01/15 01:52:57;;;;;;;54.25;29.27;;;1.10;99.90;;;;;;4954012;28;20632;-71
2022/01/15 01:55:28;;;;;;;70.50;31.27;;;1.20;99.90;;;;;;4970037;28;20218;-71
2022/01/15 01:57:57;;;;;;;61.85;33.00;;;1.30;99.90;;;;;;4974475;28;20207;-72
2022/01/15 02:00:28;;;;;;;61.50;30.90;;;1.20;99.90;;;;;;4974785;28;20214;-71
2022/01/15 02:02:58;;;;;;;52.95;28.25;;;1.20;99.90;;;;;;4964516;28;20631;-71
2022/01/15 02:05:26;;;;;;;44.28;27.88;;;1.10;99.90;;;;;;4970716;28;20203;-71
2022/01/15 02:07:54;;;;;;;45.03;30.73;;;1.30;99.90;;;;;;4973475;28;20298;-72
2022/01/15 02:10:22;;;;;;;53.65;32.92;;;1.80;99.90;;;;;;4974706;28;20245;-71
2022/01/15 02:12:52;;;;;;;47.15;30.25;;;1.80;99.90;;;;;;4974458;28;20245;-71
2022/01/15 02:15:22;;;;;;;42.50;27.85;;;1.60;99.90;;;;;;4974672;28;20238;-71
2022/01/15 02:17:52;;;;;;;50.30;29.20;;;1.60;99.90;;;;;;4974331;28;20242;-71
2022/01/15 02:20:58;;;;;;;49.90;28.75;;;1.50;99.90;;;;;;4974423;28;20324;-71
2022/01/15 02:23:35;;;;;;;47.03;28.48;;;1.40;99.90;;;;;;4953854;28;20245;-72
2022/01/15 02:26:05;;;;;;;43.10;29.70;;;1.50;99.90;;;;;;4956018;28;20211;-71
2022/01/15 02:28:36;;;;;;;39.17;27.88;;;1.70;99.90;;;;;;4948127;28;20223;-66
2022/01/15 02:31:06;;;;;;;51.95;29.90;;;2.00;99.90;;;;;;4956135;28;20199;-71
2022/01/15 02:33:34;;;;;;;46.90;30.58;;;1.80;99.90;;;;;;4969896;28;20250;-69
2022/01/15 02:36:07;;;;;;;41.38;27.70;;;1.90;99.90;;;;;;4964588;28;20194;-71
2022/01/15 02:38:36;;;;;;;57.35;32.80;;;2.00;99.90;;;;;;4969758;28;20223;-70
2022/01/15 02:41:04;;;;;;;43.40;27.55;;;1.80;99.90;;;;;;4962179;28;20220;-71
2022/01/15 02:43:33;;;;;;;46.00;30.80;;;1.90;99.90;;;;;;4955312;28;20684;-70
2022/01/15 02:46:18;;;;;;;52.67;31.02;;;1.90;99.90;;;;;;4955622;28;20669;-70
2022/01/15 02:48:48;;;;;;;55.33;30.58;;;1.80;99.90;;;;;;4963373;28;20226;-70
2022/01/15 02:51:17;;;;;;;51.08;31.52;;;1.70;99.90;;;;;;4974101;28;20226;-71
2022/01/15 02:53:46;;;;;;;65.13;34.80;;;1.70;99.90;;;;;;4973685;28;20285;-70
2022/01/15 02:56:14;;;;;;;55.17;32.67;;;1.70;99.90;;;;;;4973980;28;20207;-70
2022/01/15 02:58:44;;;;;;;42.55;29.52;;;1.70;99.90;;;;;;4973429;28;20266;-70
2022/01/15 03:01:12;;;;;;;47.65;29.92;;;1.80;99.90;;;;;;4973494;28;21002;-70
2022/01/15 03:03:40;;;;;;;62.42;34.90;;;1.80;99.90;;;;;;4965253;28;20218;-71
2022/01/15 03:06:11;;;;;;;54.83;32.85;;;2.10;99.90;;;;;;4973748;28;20202;-72
2022/01/15 03:08:41;;;;;;;62.00;35.92;;;2.10;99.90;;;;;;4972140;28;20262;-71
2022/01/15 03:11:10;;;;;;;51.20;31.52;;;2.10;99.90;;;;;;4973585;28;20234;-70
2022/01/15 03:13:39;;;;;;;47.97;29.15;;;2.20;99.90;;;;;;4973746;28;20253;-71
2022/01/15 03:16:08;;;;;;;44.95;28.83;;;2.30;99.90;;;;;;4948774;28;20273;-70
2022/01/15 03:18:36;;;;;;;46.13;28.35;;;2.30;99.90;;;;;;4948969;28;20230;-70
2022/01/15 03:21:04;;;;;;;45.20;27.70;;;2.40;99.90;;;;;;4948579;28;20663;-70
2022/01/15 03:23:32;;;;;;;48.63;30.90;;;2.40;99.90;;;;;;4948804;28;20251;-70
2022/01/15 03:26:02;;;;;;;57.10;32.15;;;2.60;99.90;;;;;;4962487;28;20227;-71
2022/01/15 03:28:29;;;;;;;43.10;29.40;;;2.40;99.90;;;;;;4973123;28;20651;-70
2022/01/15 03:30:57;;;;;;;42.03;27.40;;;2.30;99.90;;;;;;4973390;28;20198;-71
2022/01/15 03:33:25;;;;;;;53.97;30.50;;;2.30;99.90;;;;;;4957939;28;20211;-70
2022/01/15 03:35:54;;;;;;;55.53;29.30;;;2.30;99.90;;;;;;4959207;28;20262;-70
2022/01/15 03:38:22;;;;;;;49.72;28.73;;;2.20;99.90;;;;;;4954287;28;20265;-70
2022/01/15 03:40:52;;;;;;;47.53;28.73;;;2.20;99.90;;;;;;4954342;28;20253;-72
2022/01/15 03:43:21;;;;;;;39.40;26.85;;;2.20;99.90;;;;;;4954453;28;20626;-70
2022/01/15 03:45:49;;;;;;;42.30;26.90;;;2.10;99.90;;;;;;4961728;28;20254;-72
2022/01/15 03:48:18;;;;;;;43.53;26.63;;;2.20;99.90;;;;;;4958836;28;20238;-71
2022/01/15 03:50:46;;;;;;;51.50;29.02;;;2.20;99.90;;;;;;4954151;28;20274;-71
2022/01/15 03:53:15;;;;;;;47.50;28.58;;;2.20;99.90;;;;;;4953998;28;20199;-70
2022/01/15 03:55:43;;;;;;;44.75;28.10;;;2.00;99.90;;;;;;4954069;28;20242;-70
2022/01/15 03:58:11;;;;;;;38.88;25.65;;;2.00;99.90;;;;;;4954033;28;20305;-70
2022/01/15 04:00:40;;;;;;;39.58;27.30;;;2.10;99.90;;;;;;4954265;28;20311;-70
2022/01/15 04:03:08;;;;;;;42.30;26.38;;;2.20;99.90;;;;;;4955661;28;20294;-70
2022/01/15 04:05:36;;;;;;;41.97;26.33;;;2.20;99.90;;;;;;4964728;28;20207;-70
2022/01/15 04:08:06;;;;;;;46.03;27.40;;;2.10;99.90;;;;;;4953688;28;20228;-70
2022/01/15 04:10:34;;;;;;;45.72;27.45;;;2.00;99.90;;;;;;4954566;28;20290;-70
2022/01/15 04:13:02;;;;;;;46.58;26.70;;;1.90;99.90;;;;;;4953895;28;20242;-70
2022/01/15 04:15:30;;;;;;;50.60;28.63;;;2.00;99.90;;;;;;4954190;28;20239;-70
2022/01/15 04:17:59;;;;;;;35.00;24.35;;;2.20;99.90;;;;;;4953823;28;20301;-70
2022/01/15 04:20:27;;;;;;;39.60;25.10;;;2.10;99.90;;;;;;4953923;28;20684;-70
2022/01/15 04:22:55;;;;;;;51.30;29.38;;;1.90;99.90;;;;;;4953874;28;20294;-70
2022/01/15 04:25:23;;;;;;;44.22;28.65;;;1.90;99.90;;;;;;4959215;28;20289;-71
2022/01/15 04:27:51;;;;;;;38.10;27.05;;;1.90;99.90;;;;;;4972229;28;20734;-70
2022/01/15 04:30:22;;;;;;;43.65;29.30;;;2.10;99.90;;;;;;4972455;28;20217;-71
2022/01/15 04:32:50;;;;;;;40.08;25.33;;;2.20;99.90;;;;;;4962004;28;20715;-70
2022/01/15 04:35:19;;;;;;;38.08;25.27;;;2.00;99.90;;;;;;4966349;28;20714;-70
2022/01/15 04:37:51;;;;;;;45.15;26.42;;;2.10;99.90;;;;;;4971972;28;20294;-71
2022/01/15 04:40:19;;;;;;;42.80;26.50;;;2.00;99.90;;;;;;4972523;28;20237;-71
2022/01/15 04:42:47;;;;;;;50.22;28.77;;;1.90;99.90;;;;;;4971840;28;20261;-69
2022/01/15 04:45:15;;;;;;;40.28;26.58;;;1.80;99.90;;;;;;4972171;28;20234;-70
2022/01/15 04:47:43;;;;;;;48.10;28.42;;;1.80;99.90;;;;;;4971900;28;20262;-71
2022/01/15 04:50:13;;;;;;;44.97;27.00;;;1.80;99.90;;;;;;4970148;28;20202;-70
2022/01/15 04:52:43;;;;;;;46.67;25.40;;;1.80;99.90;;;;;;4961544;28;20207;-69
2022/01/15 04:55:12;;;;;;;47.88;26.30;;;1.70;99.90;;;;;;4953512;28;20290;-70
2022/01/15 04:57:42;;;;;;;35.60;24.38;;;1.80;99.90;;;;;;4953372;28;20207;-69
2022/01/15 05:00:13;;;;;;;40.67;25.38;;;1.70;99.90;;;;;;4953296;28;20278;-69
2022/01/15 05:02:41;;;;;;;50.78;29.60;;;1.70;99.90;;;;;;4952867;28;20645;-69
2022/01/15 05:05:10;;;;;;;32.95;25.13;;;1.90;99.90;;;;;;4961978;28;20306;-72
2022/01/15 05:07:38;;;;;;;51.25;28.38;;;2.00;99.90;;;;;;4946921;28;20294;-69
2022/01/15 05:10:10;;;;;;;36.33;24.55;;;1.90;99.90;;;;;;4946915;28;20270;-69
2022/01/15 05:12:43;;;;;;;31.55;23.10;;;1.90;99.90;;;;;;4953112;28;20234;-69
2022/01/15 05:15:13;;;;;;;42.20;27.35;;;1.90;99.90;;;;;;4953506;28;20246;-69
2022/01/15 05:17:41;;;;;;;34.17;24.67;;;1.90;99.90;;;;;;4953170;28;20211;-69
2022/01/15 05:20:11;;;;;;;36.03;26.80;;;1.90;99.90;;;;;;4953413;28;20231;-69
2022/01/15 05:22:39;;;;;;;37.20;27.42;;;1.90;99.90;;;;;;4953055;28;20278;-69
2022/01/15 05:25:13;;;;;;;30.25;22.65;;;1.90;99.90;;;;;;4958583;28;20997;-69
2022/01/15 05:27:41;;;;;;;39.67;28.80;;;2.20;99.90;;;;;;4971662;28;20292;-68
2022/01/15 05:30:11;;;;;;;35.47;25.65;;;2.30;99.90;;;;;;4971702;28;20619;-69
2022/01/15 05:32:39;;;;;;;35.78;25.15;;;2.20;99.90;;;;;;4964561;28;20202;-69
2022/01/15 05:35:08;;;;;;;32.97;24.17;;;2.30;99.90;;;;;;4966911;28;20223;-70
2022/01/15 05:37:36;;;;;;;43.63;27.23;;;2.30;99.90;;;;;;4971523;28;20746;-67
2022/01/15 05:40:06;;;;;;;29.30;22.92;;;2.20;99.90;;;;;;4971742;28;20345;-70
2022/01/15 05:42:35;;;;;;;26.83;22.15;;;2.20;99.90;;;;;;4971070;28;20218;-70
2022/01/15 05:45:03;;;;;;;31.85;22.65;;;2.60;99.90;;;;;;4975214;28;20739;-70
2022/01/15 05:47:31;;;;;;;23.52;20.05;;;2.70;99.90;;;;;;4975056;28;20258;-69
2022/01/15 05:49:59;;;;;;;29.35;21.33;;;2.50;99.90;;;;;;4974889;28;20246;-70
2022/01/15 05:52:27;;;;;;;28.10;21.80;;;2.40;99.90;;;;;;4974885;28;20258;-69
2022/01/15 05:54:55;;;;;;;28.95;21.42;;;2.40;99.90;;;;;;4974882;28;20289;-69
2022/01/15 05:57:23;;;;;;;30.02;22.30;;;2.40;99.90;;;;;;4970116;28;20326;-70
2022/01/15 05:59:52;;;;;;;21.90;19.25;;;2.30;99.90;;;;;;4979772;23;20695;-61
2022/01/15 06:02:20;;;;;;;25.33;20.80;;;2.30;99.90;;;;;;4946178;29;20670;-61
2022/01/15 06:04:49;;;;;;;31.20;22.35;;;2.30;99.90;;;;;;4932517;29;20588;-62
2022/01/15 06:07:17;;;;;;;28.55;21.73;;;2.40;99.90;;;;;;4954240;29;20219;-62
2022/01/15 06:09:45;;;;;;;32.55;23.25;;;2.70;99.90;;;;;;4955187;29;20650;-61
2022/01/15 06:12:12;;;;;;;22.88;20.35;;;2.50;99.90;;;;;;4955329;29;20231;-61
2022/01/15 06:14:40;;;;;;;30.77;20.98;;;2.50;99.90;;;;;;4955403;29;20250;-62
2022/01/15 06:17:10;;;;;;;25.50;21.20;;;2.50;99.90;;;;;;4955491;29;20207;-62
2022/01/15 06:19:38;;;;;;;27.77;20.83;;;2.60;99.90;;;;;;4955102;29;20302;-61
2022/01/15 06:22:07;;;;;;;24.17;19.33;;;2.70;99.90;;;;;;4954876;29;20238;-62
2022/01/15 06:24:34;;;;;;;23.38;18.80;;;2.70;99.90;;;;;;4953755;29;20234;-61
2022/01/15 06:27:03;;;;;;;24.65;19.15;;;2.80;99.90;;;;;;4955164;29;20263;-62
2022/01/15 06:29:31;;;;;;;27.88;19.13;;;2.90;99.90;;;;;;4954732;29;20254;-61
2022/01/15 06:31:59;;;;;;;25.45;18.77;;;2.80;99.90;;;;;;4950084;29;20291;-61
2022/01/15 06:34:28;;;;;;;21.50;19.00;;;2.70;99.90;;;;;;4948016;29;20231;-60
2022/01/15 06:36:56;;;;;;;22.95;18.85;;;2.50;99.90;;;;;;4930770;29;20238;-61
2022/01/15 06:39:24;;;;;;;24.17;20.27;;;2.50;99.90;;;;;;4948808;29;20669;-61
2022/01/15 06:41:52;;;;;;;22.27;19.23;;;2.50;99.90;;;;;;4937832;29;20246;-61
2022/01/15 06:44:20;;;;;;;21.27;17.88;;;2.60;99.90;;;;;;4954779;29;20732;-61
2022/01/15 06:46:48;;;;;;;23.13;18.73;;;2.80;99.90;;;;;;4954830;29;20283;-61
2022/01/15 06:49:15;;;;;;;27.05;19.08;;;2.70;99.90;;;;;;4954554;29;20235;-61
2022/01/15 06:51:45;;;;;;;25.25;19.15;;;2.60;99.90;;;;;;4954733;29;20207;-61
2022/01/15 06:54:13;;;;;;;23.52;19.88;;;2.50;99.90;;;;;;4953889;28;20715;-61
2022/01/15 06:56:41;;;;;;;24.85;18.70;;;2.70;99.90;;;;;;4954589;29;20239;-61
2022/01/15 06:59:08;;;;;;;25.42;17.73;;;2.50;99.90;;;;;;4953998;29;20788;-62
2022/01/15 07:01:36;;;;;;;21.83;17.95;;;2.40;99.90;;;;;;4954703;29;20235;-61
2022/01/15 07:04:05;;;;;;;27.67;21.05;;;2.40;99.90;;;;;;4941835;29;20633;-61
2022/01/15 07:06:32;;;;;;;24.23;20.20;;;2.40;99.90;;;;;;4951812;29;20211;-61
2022/01/15 07:09:02;;;;;;;27.55;22.40;;;2.40;99.90;;;;;;4940593;29;20696;-61
2022/01/15 07:11:30;;;;;;;26.30;21.63;;;2.60;99.90;;;;;;4954213;29;20215;-62
2022/01/15 07:13:57;;;;;;;24.80;21.38;;;2.50;99.90;;;;;;4954321;29;20242;-62
2022/01/15 07:16:25;;;;;;;25.88;19.65;;;2.60;99.90;;;;;;4954524;29;20612;-61
2022/01/15 07:18:53;;;;;;;23.80;17.73;;;2.80;99.90;;;;;;4954191;29;20290;-62
2022/01/15 07:21:21;;;;;;;26.40;19.40;;;2.70;99.90;;;;;;4954154;29;20262;-61
2022/01/15 07:23:49;;;;;;;19.40;15.93;;;3.00;99.90;;;;;;4948835;29;20334;-62
2022/01/15 07:26:18;;;;;;;21.63;18.42;;;3.10;99.90;;;;;;4948286;29;20287;-61
2022/01/15 07:28:46;;;;;;;20.48;17.60;;;3.10;99.90;;;;;;4934262;29;20317;-62
2022/01/15 07:31:14;;;;;;;18.30;14.70;;;3.10;99.90;;;;;;4930452;29;20708;-62
2022/01/15 07:33:42;;;;;;;17.83;16.02;;;2.80;99.90;;;;;;4925527;29;20275;-62
2022/01/15 07:36:10;;;;;;;18.83;16.70;;;2.70;99.90;;;;;;4928337;29;20283;-61
2022/01/15 07:38:37;;;;;;;15.95;14.20;;;2.80;99.90;;;;;;4919415;29;20235;-61
2022/01/15 07:41:06;;;;;;;17.90;16.00;;;2.60;99.90;;;;;;4923652;29;20312;-62
2022/01/15 07:43:35;;;;;;;18.20;15.27;;;2.70;99.90;;;;;;4927382;29;20335;-61
2022/01/15 07:46:03;;;;;;;17.45;15.65;;;2.60;99.90;;;;;;4925368;29;20563;-62
2022/01/15 07:48:31;;;;;;;16.48;14.77;;;2.50;99.90;;;;;;4928809;29;20236;-62
2022/01/15 07:50:59;;;;;;;19.80;17.77;;;2.50;99.90;;;;;;4928424;29;20307;-61
2022/01/15 07:53:27;;;;;;;17.35;15.75;;;2.50;99.90;;;;;;4926926;29;20666;-61
2022/01/15 07:55:54;;;;;;;18.55;16.63;;;2.50;99.90;;;;;;4924177;29;20299;-62
2022/01/15 07:58:22;;;;;;;20.33;18.33;;;2.40;99.90;;;;;;4929465;29;20737;-63
2022/01/15 08:00:52;;;;;;;18.20;16.48;;;2.40;99.90;;;;;;4926212;29;20267;-61
2022/01/15 08:03:20;;;;;;;18.00;16.40;;;2.40;99.90;;;;;;4944632;29;20235;-61
2022/01/15 08:05:48;;;;;;;19.17;16.98;;;2.40;99.90;;;;;;4952150;28;20230;-62
2022/01/15 08:08:16;;;;;;;20.55;18.25;;;2.30;99.90;;;;;;4935624;29;20236;-62
2022/01/15 08:10:45;;;;;;;18.13;16.40;;;2.40;99.90;;;;;;4946750;29;20223;-62
2022/01/15 08:13:13;;;;;;;18.83;17.05;;;2.50;99.90;;;;;;4946664;29;20724;-61
2022/01/15 08:15:40;;;;;;;18.23;16.42;;;2.40;99.90;;;;;;4946766;29;20286;-62
2022/01/15 08:18:10;;;;;;;19.80;17.67;;;2.50;99.90;;;;;;4951577;29;20767;-62
2022/01/15 08:20:42;;;;;;;16.80;15.15;;;2.60;99.90;;;;;;4929487;29;20319;-62
2022/01/15 08:23:10;;;;;;;16.38;14.77;;;2.70;99.90;;;;;;4928270;29;20225;-63
2022/01/15 08:25:38;;;;;;;18.02;16.33;;;2.60;99.90;;;;;;4925607;29;20229;-63
2022/01/15 08:28:06;;;;;;;19.10;16.75;;;2.40;99.90;;;;;;4932722;29;20213;-63
2022/01/15 08:30:34;;;;;;;17.67;15.88;;;2.30;99.90;;;;;;4923392;29;20307;-63
2022/01/15 08:33:02;;;;;;;17.67;15.98;;;2.30;99.90;;;;;;4928327;29;20211;-63
2022/01/15 08:35:31;;;;;;;18.52;16.73;;;2.20;99.90;;;;;;4924355;29;20283;-62
2022/01/15 08:38:02;;;;;;;18.17;16.48;;;2.40;99.90;;;;;;4934528;29;20268;-63
2022/01/15 08:40:32;;;;;;;21.38;19.27;;;2.50;99.90;;;;;;4946247;29;20286;-63
2022/01/15 08:43:00;;;;;;;18.42;16.60;;;2.60;99.90;;;;;;4950955;29;20233;-63
2022/01/15 08:45:29;;;;;;;19.25;17.45;;;2.90;99.90;;;;;;4953123;29;20676;-62
2022/01/15 08:47:58;;;;;;;18.90;17.00;;;3.10;99.90;;;;;;4953007;29;20238;-63
2022/01/15 08:50:26;;;;;;;17.02;15.50;;;3.20;99.90;;;;;;4953025;29;20647;-63
2022/01/15 08:52:55;;;;;;;16.25;14.60;;;3.00;99.90;;;;;;4952709;29;20214;-62
2022/01/15 08:55:28;;;;;;;17.58;15.95;;;2.90;99.90;;;;;;4943940;29;20773;-62
2022/01/15 08:57:56;;;;;;;18.75;16.35;;;2.80;99.90;;;;;;4932431;29;20252;-62
2022/01/15 09:00:24;;;;;;;16.42;14.90;;;2.70;99.90;;;;;;4951060;29;20337;-61
2022/01/15 09:02:52;;;;;;;20.30;17.90;;;2.60;99.90;;;;;;4945072;29;20215;-62
2022/01/15 09:05:20;;;;;;;17.55;15.85;;;2.50;99.90;;;;;;4952688;29;20223;-61
2022/01/15 09:07:48;;;;;;;21.58;19.23;;;2.50;99.90;;;;;;4927802;29;20286;-61
2022/01/15 09:10:18;;;;;;;21.05;18.10;;;2.40;99.90;;;;;;4946852;29;20246;-62
2022/01/15 09:12:47;;;;;;;20.90;18.83;;;2.40;99.90;;;;;;4947733;29;20211;-61
2022/01/15 09:15:30;;;;;;;21.08;18.88;;;2.40;99.90;;;;;;4942109;29;20664;-61
2022/01/15 09:17:58;;;;;;;24.10;21.48;;;2.30;99.90;;;;;;4938640;29;20211;-61
2022/01/15 09:20:27;;;;;;;22.00;19.90;;;2.30;99.90;;;;;;4955070;29;20219;-62
2022/01/15 09:22:55;;;;;;;20.17;18.13;;;2.30;99.90;;;;;;4954240;29;20780;-62
2022/01/15 09:25:26;;;;;;;22.10;19.90;;;2.30;99.90;;;;;;4927663;29;20776;-62
2022/01/15 09:30:39;;;;;;;25.45;22.45;;;2.40;99.90;;;;;;4931021;29;20319;-62
2022/01/15 09:33:07;;;;;;;22.63;20.33;;;2.40;99.90;;;;;;4931805;29;20231;-62
2022/01/15 09:35:35;;;;;;;23.48;21.15;;;2.40;99.90;;;;;;4938978;29;20302;-61
2022/01/15 09:38:05;;;;;;;25.83;22.75;;;2.40;99.90;;;;;;4936506;29;20208;-61
2022/01/15 09:40:36;;;;;;;23.80;21.50;;;2.40;99.90;;;;;;4937025;29;20546;-61
2022/01/15 09:43:04;;;;;;;21.80;19.60;;;2.50;99.90;;;;;;4946079;29;20211;-61
2022/01/15 09:45:35;;;;;;;24.95;21.83;;;2.50;99.90;;;;;;4948456;29;20255;-61
2022/01/15 09:48:06;;;;;;;22.40;20.05;;;2.50;99.90;;;;;;4949088;29;20211;-61
2022/01/15 09:50:36;;;;;;;25.30;22.52;;;2.50;99.90;;;;;;4945531;29;20227;-61
2022/01/15 09:53:04;;;;;;;25.08;22.63;;;2.50;99.90;;;;;;4947707;29;20207;-62
2022/01/15 09:55:32;;;;;;;24.27;21.85;;;2.60;99.90;;;;;;4954055;29;20289;-62
2022/01/15 09:58:01;;;;;;;21.95;19.75;;;2.60;99.90;;;;;;4955176;29;20238;-62
2022/01/15 10:00:30;;;;;;;22.67;20.38;;;2.60;99.90;;;;;;4955513;29;20718;-63
2022/01/15 10:03:01;;;;;;;25.00;22.50;;;2.70;99.90;;;;;;4954077;29;20328;-62
2022/01/15 10:05:30;;;;;;;24.48;22.10;;;2.70;99.90;;;;;;4954968;29;20237;-62
2022/01/15 10:08:00;;;;;;;24.50;22.10;;;2.60;99.90;;;;;;4938819;29;20218;-61
2022/01/15 10:10:30;;;;;;;24.30;22.10;;;2.70;99.90;;;;;;4954609;29;20247;-62
2022/01/15 10:13:13;;;;;;;26.58;23.98;;;2.70;99.90;;;;;;4955498;29;20203;-62
2022/01/15 10:15:41;;;;;;;25.27;22.63;;;2.80;99.90;;;;;;4955281;29;20627;-62
2022/01/15 10:18:21;;;;;;;23.92;21.52;;;2.70;99.90;;;;;;4955275;29;20215;-63
2022/01/15 10:20:49;;;;;;;22.90;20.73;;;2.70;99.90;;;;;;4955284;29;20306;-62
2022/01/15 10:23:18;;;;;;;21.33;19.13;;;2.80;99.90;;;;;;4954910;29;20282;-62
2022/01/15 10:25:46;;;;;;;27.13;21.27;;;2.70;99.90;;;;;;4954796;29;20269;-63
2022/01/15 10:28:15;;;;;;;22.25;19.30;;;2.80;99.90;;;;;;4954921;29;20748;-62
2022/01/15 10:30:44;;;;;;;20.80;18.65;;;2.80;99.90;;;;;;4951450;29;20251;-63
2022/01/15 10:33:12;;;;;;;18.80;17.00;;;2.80;99.90;;;;;;4933449;29;20667;-63
2022/01/15 10:35:41;;;;;;;21.38;19.27;;;2.80;99.90;;;;;;4929527;29;20196;-62
2022/01/15 10:38:11;;;;;;;20.15;18.27;;;2.80;99.90;;;;;;4931421;29;20208;-62
2022/01/15 10:40:41;;;;;;;22.52;20.27;;;2.80;99.90;;;;;;4938967;29;20227;-62
2022/01/15 10:43:10;;;;;;;21.85;19.80;;;2.80;99.90;;;;;;4938699;29;20695;-61
2022/01/15 10:45:50;;;;;;;21.67;19.70;;;2.90;99.90;;;;;;4940228;29;20302;-61
2022/01/15 10:48:22;;;;;;;20.77;18.85;;;2.80;99.90;;;;;;4944202;29;20246;-62
2022/01/15 10:50:57;;;;;;;21.75;19.75;;;2.80;99.90;;;;;;4945891;29;20235;-62
2022/01/15 10:53:35;;;;;;;19.80;17.95;;;2.90;99.90;;;;;;4948522;29;20286;-61
2022/01/15 10:56:03;;;;;;;20.67;18.80;;;2.90;99.90;;;;;;4942011;29;20932;-62
2022/01/15 10:58:31;;;;;;;20.10;18.30;;;2.80;99.90;;;;;;4944831;29;20633;-61
2022/01/15 11:01:00;;;;;;;22.75;20.40;;;2.80;99.90;;;;;;4947510;29;20342;-61
2022/01/15 11:03:37;;;;;;;24.90;22.08;;;2.80;99.90;;;;;;4942087;29;20203;-62
2022/01/15 11:06:06;;;;;;;24.33;22.02;;;2.80;99.90;;;;;;4931292;29;20310;-61
2022/01/15 11:08:36;;;;;;;23.80;21.60;;;2.80;99.90;;;;;;4934827;29;20204;-62
2022/01/15 11:11:06;;;;;;;25.60;22.98;;;2.80;99.90;;;;;;4938102;29;20231;-62
2022/01/15 11:13:36;;;;;;;26.17;23.42;;;2.80;99.90;;;;;;4943777;29;20206;-62
2022/01/15 11:16:10;;;;;;;25.95;23.58;;;2.80;99.90;;;;;;4944372;29;20220;-62
2022/01/15 11:18:40;;;;;;;24.33;22.13;;;2.80;99.90;;;;;;4946938;29;20215;-61
2022/01/15 11:21:10;;;;;;;23.58;21.42;;;2.90;99.90;;;;;;4943401;29;20258;-61
2022/01/15 11:23:40;;;;;;;23.80;21.52;;;2.90;99.90;;;;;;4946178;29;20238;-62
2022/01/15 11:26:10;;;;;;;23.67;21.35;;;2.90;99.90;;;;;;4944639;29;20219;-60
2022/01/15 11:28:39;;;;;;;24.30;21.90;;;3.00;99.90;;;;;;4948006;29;20234;-61
2022/01/15 11:31:10;;;;;;;24.73;22.02;;;3.00;99.90;;;;;;4934424;29;20302;-61
2022/01/15 11:33:40;;;;;;;24.02;21.73;;;3.00;99.90;;;;;;4930915;29;20211;-61
2022/01/15 11:36:27;;;;;;;26.00;23.60;;;2.90;99.90;;;;;;4944100;29;20215;-61
2022/01/15 11:38:57;;;;;;;24.95;22.75;;;2.90;99.90;;;;;;4924567;29;20242;-61
2022/01/15 11:41:48;;;;;;;26.58;24.02;;;2.90;99.90;;;;;;4939457;28;20231;-60
2022/01/15 11:44:17;;;;;;;25.70;23.30;;;2.90;99.90;;;;;;4940974;29;20302;-61
2022/01/15 11:46:49;;;;;;;28.40;25.63;;;3.00;99.90;;;;;;4946870;29;20658;-61
2022/01/15 11:49:38;;;;;;;24.83;22.55;;;2.90;99.90;;;;;;4940914;29;20694;-62
2022/01/15 11:52:41;;;;;;;25.30;22.95;;;2.90;99.90;;;;;;4931497;29;20223;-62
2022/01/15 11:55:14;;;;;;;25.58;23.38;;;2.80;99.90;;;;;;4947272;29;20282;-62
2022/01/15 11:57:47;;;;;;;27.10;24.55;;;2.90;99.90;;;;;;4953695;29;20199;-63
2022/01/15 12:00:29;;;;;;;27.45;24.83;;;2.80;99.90;;;;;;4964831;23;20266;-62
2022/01/15 12:03:14;;;;;;;29.33;26.63;;;2.90;99.90;;;;;;4951554;28;20747;-62
2022/01/15 12:06:01;;;;;;;28.33;25.52;;;2.90;99.90;;;;;;4952788;28;20258;-63
2022/01/15 12:08:33;;;;;;;29.58;26.95;;;2.90;99.90;;;;;;4955489;28;20223;-64
2022/01/15 12:11:06;;;;;;;29.55;26.83;;;2.90;99.90;;;;;;4953542;28;20274;-65
2022/01/15 12:13:46;;;;;;;28.45;25.77;;;2.90;99.90;;;;;;4953284;28;20238;-63
2022/01/15 12:16:36;;;;;;;29.60;26.70;;;2.90;99.90;;;;;;4953163;29;20207;-64
2022/01/15 12:19:07;;;;;;;28.35;25.65;;;2.90;99.90;;;;;;4953576;29;20214;-64
2022/01/15 12:21:46;;;;;;;26.67;24.50;;;3.00;99.90;;;;;;4953314;28;20739;-64
2022/01/15 12:24:33;;;;;;;27.70;25.33;;;2.90;99.90;;;;;;4953092;28;20262;-64
2022/01/15 12:27:03;;;;;;;30.40;27.60;;;2.90;99.90;;;;;;4952934;29;20751;-64
2022/01/15 12:29:31;;;;;;;29.08;26.60;;;3.00;99.90;;;;;;4951920;29;20203;-63
2022/01/15 12:31:59;;;;;;;26.65;24.35;;;2.90;99.90;;;;;;4952983;28;20255;-64
2022/01/15 12:34:29;;;;;;;28.48;25.60;;;2.90;99.90;;;;;;4953204;29;20246;-64
2022/01/15 12:36:57;;;;;;;27.75;25.23;;;2.90;99.90;;;;;;4939588;29;20196;-65
2022/01/15 12:39:36;;;;;;;27.83;25.27;;;2.90;99.90;;;;;;4944828;29;20238;-65
2022/01/15 12:42:05;;;;;;;27.42;24.80;;;2.90;99.90;;;;;;4931972;29;20271;-65
2022/01/15 12:44:41;;;;;;;27.98;25.33;;;2.90;99.90;;;;;;4940945;29;20203;-65
2022/01/15 12:47:09;;;;;;;27.70;25.20;;;3.00;99.90;;;;;;4942866;28;20261;-64
2022/01/15 12:49:41;;;;;;;27.27;24.83;;;3.00;99.90;;;;;;4953101;29;20258;-64
2022/01/15 12:52:13;;;;;;;28.50;25.85;;;3.00;99.90;;;;;;4953333;28;20238;-64
2022/01/15 12:54:41;;;;;;;25.65;23.35;;;2.90;99.90;;;;;;4956913;29;20238;-64
2022/01/15 12:57:09;;;;;;;27.65;25.00;;;2.90;99.90;;;;;;4956907;28;20613;-63
2022/01/15 12:59:38;;;;;;;26.05;23.55;;;2.90;99.90;;;;;;4956911;29;20290;-68
2022/01/15 13:02:07;;;;;;;29.27;26.38;;;2.90;99.90;;;;;;4956537;28;20263;-64